»·PEaware :: DAL1741 KPDX-KSLC

DAL1741 :: KPDX-KSLC

FLIGHT INFORMATION

Flight Status: Arrived
Operator:
Delta Air Lines
More flights by this operator :: More flights under this callsign
Pilot: Joe P. (13940)
Aircraft: BOEING 737-700
(B737)
More flights by this aircraft type
Origin: KPDX Portland Intl
United States
Destination: KSLC Salt Lake City Intl
United States
More flights between these airports :: More routes between these airports
Route: WHAMY4 IMB J15 BOI BYI SKEES5
File this flight plan on PilotEdge
Remarks: KENV -PBN / A1B1C1D1L1O1S1 NAV / RNVD1E2A1 DOF / 181201 REG / N389DA EET / KZLC0027 RVR / 200 PER / C
Altitude:
(Current/Filed)
370ft
Speed:
(Current/Filed)
455kts
Departed: 01-Dec-18 02:00 PM
Arrived: 01-Dec-18 03:23 PM
Distance/Time
Traveled:
546nm/1:22
Distance/Time
To Go:
Arrived

Flight Plot

Page will automatically refresh every two minutes.

Flight plan parsing failed; only flown route is shown


Map Options




Map Legend


Flown Route
Filed Route
Departure Airport
Arrival Airport
Navaid (VOR, NDB)
Fix

Horizontal Profiles

Position Reports

Time Latitude Longitude Heading Altitude Ground
Speed
01-Dec-18 12:57 45.591277 -122.594136 203 26ft 0kts
01-Dec-18 12:58 45.591277 -122.594136 203 26ft 0kts
01-Dec-18 12:59 45.591277 -122.594136 203 26ft 0kts
01-Dec-18 13:00 45.591277 -122.594136 203 26ft 0kts
01-Dec-18 13:01 45.591277 -122.594136 203 26ft 0kts
01-Dec-18 13:02 45.591277 -122.594136 203 25ft 0kts
01-Dec-18 13:03 45.591277 -122.594136 203 26ft 0kts
01-Dec-18 13:04 45.591277 -122.594136 203 26ft 0kts
01-Dec-18 13:05 45.591277 -122.594136 203 26ft 0kts
01-Dec-18 13:06 45.591277 -122.594136 203 26ft 0kts
01-Dec-18 13:07 45.591277 -122.594136 203 26ft 0kts
01-Dec-18 13:08 45.591277 -122.594136 203 26ft 0kts
01-Dec-18 13:09 45.591277 -122.594136 203 26ft 0kts
01-Dec-18 13:10 45.591277 -122.594136 203 26ft 0kts
01-Dec-18 13:11 45.591277 -122.594136 203 26ft 0kts
01-Dec-18 13:12 45.591277 -122.594136 203 26ft 0kts
01-Dec-18 13:13 45.591277 -122.594136 203 26ft 0kts
01-Dec-18 13:14 45.591277 -122.594136 203 26ft 0kts
01-Dec-18 13:15 45.591277 -122.594136 203 26ft 0kts
01-Dec-18 13:16 45.591277 -122.594136 203 26ft 0kts
01-Dec-18 13:17 45.591277 -122.594136 203 26ft 0kts
01-Dec-18 13:18 45.591277 -122.594136 203 26ft 0kts
01-Dec-18 13:19 45.591277 -122.594136 203 26ft 0kts
01-Dec-18 13:20 45.591277 -122.594136 203 26ft 0kts
01-Dec-18 13:21 45.591277 -122.594136 203 26ft 0kts
01-Dec-18 13:22 45.591277 -122.594136 203 26ft 0kts
01-Dec-18 13:23 45.591277 -122.594136 203 26ft 0kts
01-Dec-18 13:24 45.591277 -122.594136 203 26ft 0kts
01-Dec-18 13:25 45.591277 -122.594136 203 26ft 0kts
01-Dec-18 13:26 45.591277 -122.594136 203 26ft 0kts
01-Dec-18 13:27 45.591277 -122.594136 203 26ft 0kts
01-Dec-18 13:28 45.591277 -122.594136 203 26ft 0kts
01-Dec-18 13:29 45.591277 -122.594136 203 26ft 0kts
01-Dec-18 13:30 45.591277 -122.594136 203 26ft 0kts
01-Dec-18 13:31 45.591277 -122.594136 203 26ft 0kts
01-Dec-18 13:32 45.591277 -122.594136 203 26ft 0kts
01-Dec-18 13:33 45.591277 -122.594136 203 26ft 0kts
01-Dec-18 13:34 45.591277 -122.594136 203 26ft 0kts
01-Dec-18 13:35 45.591277 -122.594136 203 26ft 0kts
01-Dec-18 13:36 45.591277 -122.594136 203 26ft 0kts
01-Dec-18 13:37 45.591277 -122.594136 203 26ft 0kts
01-Dec-18 13:38 45.591277 -122.594136 203 26ft 0kts
01-Dec-18 13:39 45.591277 -122.594136 203 26ft 0kts
01-Dec-18 13:40 45.591277 -122.594136 203 26ft 0kts
01-Dec-18 13:41 45.591277 -122.594136 203 26ft 0kts
01-Dec-18 13:42 45.591277 -122.594136 203 26ft 0kts
01-Dec-18 13:43 45.591277 -122.594136 203 26ft 0kts
01-Dec-18 13:44 45.591277 -122.594136 203 26ft 0kts
01-Dec-18 13:45 45.591277 -122.594136 203 26ft 0kts
01-Dec-18 13:46 45.591277 -122.594136 203 26ft 0kts
01-Dec-18 13:47 45.591277 -122.594136 203 26ft 0kts
01-Dec-18 13:48 45.591277 -122.594136 203 26ft 0kts
01-Dec-18 13:49 45.591277 -122.594136 203 26ft 0kts
01-Dec-18 13:50 45.591277 -122.594136 203 26ft 0kts
01-Dec-18 13:51 45.591624 -122.593781 241 26ft 2kts
01-Dec-18 13:52 45.591608 -122.593263 299 26ft 0kts
01-Dec-18 13:53 45.591608 -122.593263 299 26ft 0kts
01-Dec-18 13:54 45.591609 -122.593264 299 26ft 0kts
01-Dec-18 13:55 45.591610 -122.593266 299 26ft 0kts
01-Dec-18 13:56 45.592075 -122.592997 77 26ft 10kts
01-Dec-18 13:57 45.590457 -122.587419 120 25ft 17kts
01-Dec-18 13:58 45.587876 -122.580900 118 26ft 20kts
01-Dec-18 13:59 45.585377 -122.574571 119 26ft 17kts
01-Dec-18 14:00 45.583406 -122.569414 96 25ft 9kts
01-Dec-18 14:01 45.583679 -122.568974 30 25ft 3kts
01-Dec-18 14:02 45.584612 -122.569640 301 25ft 0kts
01-Dec-18 14:03 45.600068 -122.609298 298 1576ft 176kts
01-Dec-18 14:04 45.630640 -122.689056 298 4820ft 262kts
01-Dec-18 14:05 45.683711 -122.722033 41 6983ft 253kts
01-Dec-18 14:06 45.673025 -122.629717 130 7638ft 280kts
01-Dec-18 14:07 45.617505 -122.547064 133 10856ft 297kts
01-Dec-18 14:08 45.562745 -122.442584 109 12554ft 360kts
01-Dec-18 14:09 45.522023 -122.311159 134 15385ft 376kts
01-Dec-18 14:10 45.439770 -122.214712 137 17906ft 392kts
01-Dec-18 14:11 45.357242 -122.108654 137 20281ft 405kts
01-Dec-18 14:12 45.272760 -121.998707 129 22373ft 418kts
01-Dec-18 14:13 45.221624 -121.849879 109 24300ft 427kts
01-Dec-18 14:14 45.179565 -121.688650 109 25771ft 444kts
01-Dec-18 14:15 45.135990 -121.522053 109 27118ft 458kts
01-Dec-18 14:16 45.091596 -121.349854 109 28315ft 471kts
01-Dec-18 14:17 45.045648 -121.174251 110 29410ft 482kts
01-Dec-18 14:18 44.998540 -120.996001 110 30717ft 485kts
01-Dec-18 14:19 44.950924 -120.817281 110 31961ft 488kts
01-Dec-18 14:20 44.902653 -120.637473 110 33131ft 490kts
01-Dec-18 14:21 44.853915 -120.457300 110 34217ft 492kts
01-Dec-18 14:22 44.804892 -120.277399 110 35337ft 492kts
01-Dec-18 14:23 44.755703 -120.097462 110 36289ft 494kts
01-Dec-18 14:24 44.705887 -119.917030 111 36846ft 497kts
01-Dec-18 14:25 44.655726 -119.737780 111 36841ft 492kts
01-Dec-18 14:26 44.603795 -119.559099 112 36832ft 492kts
01-Dec-18 14:27 44.551311 -119.381648 112 36821ft 493kts
01-Dec-18 14:28 44.498860 -119.204258 112 36814ft 491kts
01-Dec-18 14:29 44.446669 -119.027461 112 36810ft 491kts
01-Dec-18 14:30 44.394178 -118.851789 113 36810ft 490kts
01-Dec-18 14:31 44.341129 -118.675732 113 36808ft 491kts
01-Dec-18 14:32 44.287991 -118.500667 113 36805ft 491kts
01-Dec-18 14:33 44.234333 -118.325109 113 36803ft 492kts
01-Dec-18 14:34 44.180256 -118.149394 114 36804ft 492kts
01-Dec-18 14:35 44.126162 -117.974812 114 36805ft 492kts
01-Dec-18 14:36 44.071508 -117.799608 114 36806ft 492kts
01-Dec-18 14:37 44.016890 -117.625687 114 36805ft 491kts
01-Dec-18 14:38 43.961855 -117.451597 114 36815ft 495kts
01-Dec-18 14:39 43.906282 -117.276969 114 36817ft 494kts
01-Dec-18 14:40 43.850481 -117.102786 115 36817ft 494kts
01-Dec-18 14:41 43.803840 -116.958063 115 36815ft 494kts
01-Dec-18 14:42 43.738367 -116.756229 115 36810ft 493kts
01-Dec-18 14:43 43.691312 -116.612098 115 36809ft 492kts
01-Dec-18 14:44 43.628014 -116.418514 115 36802ft 491kts
01-Dec-18 14:45 43.580688 -116.275936 115 36808ft 490kts
01-Dec-18 14:46 43.508777 -116.081031 121 36808ft 489kts
01-Dec-18 14:47 43.453092 -115.945319 120 36804ft 488kts
01-Dec-18 14:48 43.375501 -115.755711 120 36801ft 489kts
01-Dec-18 14:49 43.320108 -115.619255 120 36799ft 490kts
01-Dec-18 14:50 43.242197 -115.429312 121 36798ft 491kts
01-Dec-18 14:51 43.186200 -115.293745 121 36798ft 492kts
01-Dec-18 14:52 43.118439 -115.130589 121 36808ft 491kts
01-Dec-18 14:53 43.050732 -114.968496 121 36811ft 491kts
01-Dec-18 14:54 42.982705 -114.806534 121 36814ft 492kts
01-Dec-18 14:55 42.914308 -114.644583 121 36817ft 492kts
01-Dec-18 14:56 42.845610 -114.482833 121 36819ft 493kts
01-Dec-18 14:57 42.776504 -114.320999 121 36819ft 494kts
01-Dec-18 14:58 42.707540 -114.159625 121 36817ft 495kts
01-Dec-18 14:59 42.637580 -113.997862 122 36813ft 496kts
01-Dec-18 15:00 42.562468 -113.841960 133 36809ft 491kts
01-Dec-18 15:01 42.465557 -113.711294 138 36810ft 490kts
01-Dec-18 15:02 42.368237 -113.581979 138 36338ft 489kts
01-Dec-18 15:03 42.270787 -113.452709 138 33477ft 493kts
01-Dec-18 15:04 42.172995 -113.323756 138 30767ft 487kts
01-Dec-18 15:05 42.077989 -113.199046 138 28607ft 467kts
01-Dec-18 15:06 41.986951 -113.079388 138 26544ft 448kts
01-Dec-18 15:07 41.899082 -112.964127 138 24520ft 434kts
01-Dec-18 15:08 41.813919 -112.853267 138 22543ft 421kts
01-Dec-18 15:09 41.731124 -112.746230 138 20601ft 405kts
01-Dec-18 15:10 41.650741 -112.642397 138 18694ft 398kts
01-Dec-18 15:11 41.571153 -112.540171 138 16815ft 393kts
01-Dec-18 15:12 41.490000 -112.449967 145 15999ft 357kts
01-Dec-18 15:13 41.420682 -112.354577 133 13903ft 376kts
01-Dec-18 15:14 41.349622 -112.249417 133 10923ft 376kts
01-Dec-18 15:15 41.282992 -112.151640 133 9297ft 324kts
01-Dec-18 15:16 41.225426 -112.074740 148 8989ft 267kts
01-Dec-18 15:17 41.166281 -112.031392 152 8959ft 217kts
01-Dec-18 15:18 41.115405 -112.011720 188 8983ft 197kts
01-Dec-18 15:19 41.064186 -112.028885 176 8995ft 183kts
01-Dec-18 15:20 41.018193 -112.023643 174 8291ft 149kts
01-Dec-18 15:21 40.977010 -112.018780 168 7507ft 149kts
01-Dec-18 15:22 40.935794 -112.013974 170 6676ft 149kts
01-Dec-18 15:23 40.893885 -112.009197 174 5955ft 146kts
01-Dec-18 15:24 40.853649 -112.004544 174 5157ft 151kts
01-Dec-18 15:25 40.812781 -111.999790 175 4297ft 140kts
01-Dec-18 15:26 40.793824 -111.997698 174 4235ft 16kts
01-Dec-18 15:27 40.791326 -111.996376 117 4235ft 0kts
01-Dec-18 15:28 40.791009 -111.994795 92 4235ft 11kts
01-Dec-18 15:29 40.791076 -111.993072 85 4235ft 0kts
01-Dec-18 15:30 40.791077 -111.993071 85 4235ft 0kts
01-Dec-18 15:31 40.791313 -111.989846 84 4235ft 6kts
01-Dec-18 15:32 40.791020 -111.986255 171 4235ft 7kts
01-Dec-18 15:33 40.789075 -111.983773 244 4235ft 4kts
01-Dec-18 15:34 40.788898 -111.984448 254 4235ft 0kts
01-Dec-18 15:35 40.788898 -111.984448 254 4235ft 0kts
01-Dec-18 15:36 40.788898 -111.984448 254 4235ft 0kts
01-Dec-18 15:37 40.788898 -111.984448 254 4235ft 0kts
01-Dec-18 15:38 40.788898 -111.984448 254 4235ft 0kts
01-Dec-18 15:39 40.788898 -111.984448 254 4235ft 0kts
01-Dec-18 15:40 40.788898 -111.984448 254 4235ft 0kts

Navigation Log

Ident Type
Flight plan parsing failed, navigation log unavailable